Terminal Aerodrome Forecast
Issued by NWS

Home | Current Version | Previous Version | Graphics & Text | Print | Product List | Glossary On
Versions: 1 2 3 4 5 6 7 8 9 10 11 12 13 14 15 16 17 18
000
FTUS42 KMHX 240542
TAFISO
TAF
KISO 240542Z 2406/2506 04013G17KT P6SM OVC100
     FM241300 04009KT P6SM OVC040
     FM241500 03007KT 4SM -SN OVC015
     FM241800 04005KT 2SM -SN BR OVC007
     FM242200 04005KT 2SM -FZRA BR OVC005
     FM250300 VRB03KT 3SM BR OVC005
      AMD LTD TO CLD VIS AND WIND=

USA.gov is the U.S. government's official web portal to all federal, state and local government web resources and services.